Time;durP1;ratioP1;P1;durP2;ratioP2;P2;SDS_P1;SDS_P2;PMS_P1;PMS_P2;Temp;Humidity;BMP_temperature;BMP_pressure;BME280_temperature;BME280_humidity;BME280_pressure;Samples;Min_cycle;Max_cycle;Signal;HPM_P1;HPM_P2
2022/12/30 00:00:36;;;;;;;1.20;0.82;;;;;;;;;;5029190;28;20179;-75
2022/12/30 00:03:02;;;;;;;1.10;0.77;;;;;;;;;;5030949;28;20490;-76
2022/12/30 00:05:28;;;;;;;1.70;0.98;;;;;;;;;;5029827;28;20049;-76
2022/12/30 00:07:54;;;;;;;1.52;0.73;;;;;;;;;;5029337;28;20018;-76
2022/12/30 00:10:20;;;;;;;1.52;0.80;;;;;;;;;;5028043;28;20029;-76
2022/12/30 00:35:06;;;;;;;2.00;0.98;;;;;;;;;;5028420;28;20541;-75
2022/12/30 00:37:32;;;;;;;1.00;0.70;;;;;;;;;;5027957;28;20079;-75
2022/12/30 00:39:58;;;;;;;1.98;0.80;;;;;;;;;;5025211;28;20041;-75
2022/12/30 00:45:09;;;;;;;1.48;0.57;;;;;;;;;;5014555;28;20546;-75
2022/12/30 00:47:38;;;;;;;1.13;0.90;;;;;;;;;;5028879;28;20207;-75
2022/12/30 00:58:18;;;;;;;0.70;0.52;;;;;;;;;;5018681;28;20356;-75
2022/12/30 01:00:44;;;;;;;1.33;0.80;;;;;;;;;;5028537;28;20492;-75
2022/12/30 01:03:10;;;;;;;2.20;0.95;;;;;;;;;;5027574;28;20055;-75
2022/12/30 01:05:39;;;;;;;1.33;0.77;;;;;;;;;;5022863;28;20025;-75
2022/12/30 01:08:08;;;;;;;2.55;0.80;;;;;;;;;;5027137;28;20033;-75
2022/12/30 01:10:34;;;;;;;2.63;0.40;;;;;;;;;;5024586;28;20108;-75
2022/12/30 01:13:03;;;;;;;1.77;0.73;;;;;;;;;;5023185;28;20384;-75
2022/12/30 01:15:32;;;;;;;2.28;0.73;;;;;;;;;;5023956;28;20032;-75
2022/12/30 01:17:58;;;;;;;0.63;0.60;;;;;;;;;;5023431;28;20507;-75
2022/12/30 01:20:27;;;;;;;1.33;0.70;;;;;;;;;;5026580;28;20029;-75
2022/12/30 01:22:56;;;;;;;0.70;0.52;;;;;;;;;;5030934;28;20480;-75
2022/12/30 01:25:31;;;;;;;0.75;0.65;;;;;;;;;;5026977;28;20643;-75
2022/12/30 01:27:57;;;;;;;2.67;0.60;;;;;;;;;;5026375;28;20038;-75
2022/12/30 01:30:23;;;;;;;1.10;0.90;;;;;;;;;;5025737;28;20510;-75
2022/12/30 01:32:49;;;;;;;1.48;0.75;;;;;;;;;;5024829;28;20049;-74
2022/12/30 01:35:15;;;;;;;0.80;0.70;;;;;;;;;;5023370;28;20056;-75
2022/12/30 01:37:41;;;;;;;0.77;0.68;;;;;;;;;;5022845;28;20086;-74
2022/12/30 01:40:07;;;;;;;1.38;0.73;;;;;;;;;;5027785;28;20748;-75
2022/12/30 01:42:37;;;;;;;0.98;0.70;;;;;;;;;;5029958;28;20033;-75
2022/12/30 01:45:15;;;;;;;1.27;0.60;;;;;;;;;;5029882;28;20112;-75
2022/12/30 01:47:57;;;;;;;0.65;0.57;;;;;;;;;;5026722;28;20384;-75
2022/12/30 01:50:41;;;;;;;0.55;0.55;;;;;;;;;;5027501;28;20037;-75
2022/12/30 01:53:15;;;;;;;0.75;0.60;;;;;;;;;;5026135;28;20089;-76
2022/12/30 01:56:02;;;;;;;0.47;0.40;;;;;;;;;;5034114;28;20033;-75
2022/12/30 01:58:34;;;;;;;1.75;0.70;;;;;;;;;;5019191;28;20033;-75
2022/12/30 02:01:00;;;;;;;0.75;0.52;;;;;;;;;;5026505;28;20036;-75
2022/12/30 02:03:30;;;;;;;3.00;0.70;;;;;;;;;;5029953;28;20120;-75
2022/12/30 02:05:56;;;;;;;1.13;0.73;;;;;;;;;;5026410;28;20424;-75
2022/12/30 02:08:22;;;;;;;1.90;0.98;;;;;;;;;;5026338;28;20030;-75
2022/12/30 02:10:50;;;;;;;1.02;0.60;;;;;;;;;;5021962;28;20249;-75
2022/12/30 02:13:18;;;;;;;1.73;0.75;;;;;;;;;;5025254;28;20033;-75
2022/12/30 02:16:07;;;;;;;1.40;0.80;;;;;;;;;;5026106;28;20524;-75
2022/12/30 02:18:42;;;;;;;0.50;0.50;;;;;;;;;;5018721;28;20049;-75
2022/12/30 02:21:36;;;;;;;1.55;0.50;;;;;;;;;;5026018;28;20079;-75
2022/12/30 02:24:13;;;;;;;1.58;0.57;;;;;;;;;;5018770;28;20018;-75
2022/12/30 02:26:51;;;;;;;1.38;0.55;;;;;;;;;;5024827;28;20025;-74
2022/12/30 02:29:31;;;;;;;0.73;0.57;;;;;;;;;;5027029;28;20528;-75
2022/12/30 02:32:13;;;;;;;0.70;0.50;;;;;;;;;;5025847;28;20238;-75
2022/12/30 02:34:58;;;;;;;0.88;0.30;;;;;;;;;;5029534;28;20059;-75
2022/12/30 02:37:31;;;;;;;1.35;0.40;;;;;;;;;;5029972;28;20049;-75
2022/12/30 02:40:03;;;;;;;1.08;0.75;;;;;;;;;;5025197;28;20040;-75
2022/12/30 02:45:29;;;;;;;1.27;0.70;;;;;;;;;;5028366;28;20175;-75
2022/12/30 02:47:58;;;;;;;2.28;0.50;;;;;;;;;;5028441;28;20448;-75
2022/12/30 02:53:13;;;;;;;2.15;0.50;;;;;;;;;;5025099;28;20040;-74
2022/12/30 02:55:42;;;;;;;0.50;0.47;;;;;;;;;;5027120;28;20025;-75
2022/12/30 02:58:08;;;;;;;2.22;0.50;;;;;;;;;;5027515;28;20025;-74
2022/12/30 03:06:40;;;;;;;0.50;0.50;;;;;;;;;;5028199;28;20110;-75
2022/12/30 03:09:18;;;;;;;1.08;0.50;;;;;;;;;;5030359;28;20036;-75
2022/12/30 03:12:02;;;;;;;0.55;0.40;;;;;;;;;;5025035;28;20464;-75
2022/12/30 03:14:39;;;;;;;1.52;0.90;;;;;;;;;;5028946;28;20092;-75
2022/12/30 03:17:12;;;;;;;2.65;0.32;;;;;;;;;;5032030;28;20269;-75
2022/12/30 03:19:43;;;;;;;1.30;0.47;;;;;;;;;;5027460;28;20368;-75
2022/12/30 03:27:03;;;;;;;1.42;0.50;;;;;;;;;;5030738;28;20053;-75
2022/12/30 03:27:47;;;;;;;1.77;0.80;;;;;;;;;;5028103;28;20032;-75
2022/12/30 03:30:13;;;;;;;0.63;0.50;;;;;;;;;;5026238;28;20091;-75
2022/12/30 03:32:39;;;;;;;0.77;0.73;;;;;;;;;;5029402;28;20052;-75
2022/12/30 03:35:05;;;;;;;0.75;0.50;;;;;;;;;;5029032;28;20068;-75
2022/12/30 03:37:37;;;;;;;0.65;0.60;;;;;;;;;;5029246;28;20108;-75
2022/12/30 03:40:07;;;;;;;0.65;0.45;;;;;;;;;;5026652;28;20030;-75
2022/12/30 03:42:33;;;;;;;0.60;0.45;;;;;;;;;;5030105;28;20037;-75
2022/12/30 03:45:00;;;;;;;3.75;0.55;;;;;;;;;;5029492;28;20037;-75
2022/12/30 03:47:26;;;;;;;0.55;0.50;;;;;;;;;;5027059;28;20062;-75
2022/12/30 03:49:52;;;;;;;0.65;0.50;;;;;;;;;;5015359;28;20060;-75
2022/12/30 03:52:20;;;;;;;1.05;0.45;;;;;;;;;;5037153;28;20137;-75
2022/12/30 03:54:46;;;;;;;0.50;0.30;;;;;;;;;;5017851;28;20091;-75
2022/12/30 03:57:12;;;;;;;0.80;0.52;;;;;;;;;;5028093;28;20037;-75
2022/12/30 03:59:39;;;;;;;4.60;0.95;;;;;;;;;;5029572;28;20029;-75
2022/12/30 04:02:05;;;;;;;0.32;0.32;;;;;;;;;;5027882;28;20065;-75
2022/12/30 04:04:31;;;;;;;0.60;0.50;;;;;;;;;;5026552;28;20102;-75
2022/12/30 04:06:57;;;;;;;1.75;0.68;;;;;;;;;;5026230;28;20708;-75
2022/12/30 04:09:23;;;;;;;1.85;0.50;;;;;;;;;;5027360;28;20029;-75
2022/12/30 04:11:49;;;;;;;0.40;0.40;;;;;;;;;;5027028;28;20037;-75
2022/12/30 04:14:15;;;;;;;2.75;0.60;;;;;;;;;;5036329;28;20041;-74
2022/12/30 04:16:41;;;;;;;1.33;0.57;;;;;;;;;;5027825;28;20033;-75
2022/12/30 04:19:07;;;;;;;0.93;0.50;;;;;;;;;;5027938;28;20037;-75
2022/12/30 04:21:33;;;;;;;3.03;0.60;;;;;;;;;;5025204;28;20120;-74
2022/12/30 04:23:59;;;;;;;2.28;0.60;;;;;;;;;;5028733;28;20168;-74
2022/12/30 04:26:25;;;;;;;3.55;0.88;;;;;;;;;;5027522;28;20120;-74
2022/12/30 04:28:51;;;;;;;0.40;0.40;;;;;;;;;;5029901;28;20061;-74
2022/12/30 04:31:17;;;;;;;0.63;0.50;;;;;;;;;;5026601;28;20014;-74
2022/12/30 04:33:43;;;;;;;0.68;0.50;;;;;;;;;;5027334;28;20400;-75
2022/12/30 04:36:09;;;;;;;0.68;0.50;;;;;;;;;;5019644;28;20032;-75
2022/12/30 04:38:35;;;;;;;2.08;0.45;;;;;;;;;;5026599;28;20029;-75
2022/12/30 04:41:01;;;;;;;0.60;0.50;;;;;;;;;;5027062;28;20419;-75
2022/12/30 04:43:30;;;;;;;0.88;0.40;;;;;;;;;;5029891;28;20155;-75
2022/12/30 04:45:56;;;;;;;1.15;0.50;;;;;;;;;;5028455;28;20486;-75
2022/12/30 04:48:22;;;;;;;1.40;0.75;;;;;;;;;;5027064;28;20043;-74
2022/12/30 04:50:48;;;;;;;1.55;0.40;;;;;;;;;;5024091;28;20026;-75
2022/12/30 04:53:14;;;;;;;1.73;0.88;;;;;;;;;;5024699;28;20111;-74
2022/12/30 04:55:40;;;;;;;2.60;0.70;;;;;;;;;;5028275;28;20481;-74
2022/12/30 04:58:07;;;;;;;2.17;0.55;;;;;;;;;;5028255;28;20548;-75
2022/12/30 05:00:33;;;;;;;0.50;0.50;;;;;;;;;;5027593;28;20804;-75
2022/12/30 05:02:59;;;;;;;0.40;0.40;;;;;;;;;;5027829;28;20033;-75
2022/12/30 05:05:25;;;;;;;1.20;0.47;;;;;;;;;;5033663;28;20063;-75
2022/12/30 05:07:51;;;;;;;0.77;0.50;;;;;;;;;;5023431;28;20092;-75
2022/12/30 05:10:18;;;;;;;1.00;0.55;;;;;;;;;;5023960;28;20078;-75
2022/12/30 05:12:43;;;;;;;1.65;0.60;;;;;;;;;;5027826;28;20426;-75
2022/12/30 05:15:10;;;;;;;0.50;0.50;;;;;;;;;;5026056;28;20026;-75
2022/12/30 05:17:36;;;;;;;0.43;0.40;;;;;;;;;;5027224;28;20484;-74
2022/12/30 05:20:02;;;;;;;2.75;0.70;;;;;;;;;;5024264;28;20025;-75
2022/12/30 05:22:28;;;;;;;1.67;0.60;;;;;;;;;;5032178;28;20546;-74
2022/12/30 05:27:39;;;;;;;1.48;0.52;;;;;;;;;;5026884;28;20099;-75
2022/12/30 05:30:05;;;;;;;0.60;0.50;;;;;;;;;;5025344;28;20439;-75
2022/12/30 05:32:31;;;;;;;1.13;0.75;;;;;;;;;;5030951;28;20124;-75
2022/12/30 05:34:57;;;;;;;0.30;0.30;;;;;;;;;;5025959;28;20800;-75
2022/12/30 05:37:23;;;;;;;0.77;0.50;;;;;;;;;;5027219;28;20090;-75
2022/12/30 05:39:49;;;;;;;0.50;0.45;;;;;;;;;;5028693;28;20771;-75
2022/12/30 05:42:15;;;;;;;0.70;0.60;;;;;;;;;;5023371;28;20075;-75
2022/12/30 05:44:41;;;;;;;0.70;0.45;;;;;;;;;;5025238;28;20384;-75
2022/12/30 05:47:07;;;;;;;1.30;0.50;;;;;;;;;;5025415;28;20551;-75
2022/12/30 05:49:33;;;;;;;0.30;0.30;;;;;;;;;;5025832;28;20473;-75
2022/12/30 05:51:58;;;;;;;0.90;0.57;;;;;;;;;;5028477;28;20026;-74
2022/12/30 05:54:24;;;;;;;0.70;0.43;;;;;;;;;;5028020;28;20036;-75
2022/12/30 05:56:50;;;;;;;0.88;0.40;;;;;;;;;;5024299;28;20038;-75
2022/12/30 05:59:16;;;;;;;0.32;0.32;;;;;;;;;;5024489;28;20029;-74
2022/12/30 06:01:42;;;;;;;1.08;0.60;;;;;;;;;;5026060;28;20030;-75
2022/12/30 06:04:08;;;;;;;1.35;0.50;;;;;;;;;;5026803;28;20030;-74
2022/12/30 06:06:34;;;;;;;3.88;0.90;;;;;;;;;;5027343;28;20396;-74
2022/12/30 06:09:01;;;;;;;0.63;0.40;;;;;;;;;;5030560;28;20025;-74
2022/12/30 06:11:27;;;;;;;0.45;0.40;;;;;;;;;;5028361;28;20022;-74
2022/12/30 06:13:53;;;;;;;2.10;0.60;;;;;;;;;;5034488;28;20052;-74
2022/12/30 06:16:19;;;;;;;1.05;0.77;;;;;;;;;;5030368;28;20033;-75
2022/12/30 06:18:45;;;;;;;1.38;0.68;;;;;;;;;;5029819;28;20036;-75
2022/12/30 06:21:10;;;;;;;0.93;0.45;;;;;;;;;;5029020;28;20021;-75
2022/12/30 06:23:36;;;;;;;0.35;0.35;;;;;;;;;;5031577;28;20025;-74
2022/12/30 06:26:03;;;;;;;1.08;0.68;;;;;;;;;;5030074;28;20029;-74
2022/12/30 06:28:29;;;;;;;2.67;0.50;;;;;;;;;;5025757;28;20108;-74
2022/12/30 06:30:55;;;;;;;0.50;0.40;;;;;;;;;;5029506;28;20029;-74
2022/12/30 06:33:23;;;;;;;0.65;0.60;;;;;;;;;;5028493;28;20764;-74
2022/12/30 06:35:49;;;;;;;0.57;0.52;;;;;;;;;;5030357;28;20049;-74
2022/12/30 06:38:15;;;;;;;3.03;0.82;;;;;;;;;;5036887;28;20582;-75
2022/12/30 06:40:40;;;;;;;0.65;0.60;;;;;;;;;;5029433;28;20104;-74
2022/12/30 06:43:06;;;;;;;0.98;0.70;;;;;;;;;;5027083;28;20033;-72
2022/12/30 06:45:32;;;;;;;1.50;0.68;;;;;;;;;;5024786;28;20033;-73
2022/12/30 06:48:07;;;;;;;0.60;0.40;;;;;;;;;;5028130;28;20022;-77
2022/12/30 06:50:34;;;;;;;0.80;0.50;;;;;;;;;;5026159;28;20030;-74
2022/12/30 06:53:00;;;;;;;0.68;0.50;;;;;;;;;;5029868;28;20027;-83
2022/12/30 06:55:25;;;;;;;1.77;0.55;;;;;;;;;;5051478;28;20477;-78
2022/12/30 06:57:51;;;;;;;1.65;0.65;;;;;;;;;;5030102;28;20037;-72
2022/12/30 07:00:17;;;;;;;0.40;0.40;;;;;;;;;;5034639;28;20021;-72
2022/12/30 07:02:43;;;;;;;1.23;0.47;;;;;;;;;;5025409;28;20123;-73
2022/12/30 07:05:09;;;;;;;1.48;0.40;;;;;;;;;;5031627;28;20706;-72
2022/12/30 07:07:35;;;;;;;1.33;0.40;;;;;;;;;;5019774;28;20484;-80
2022/12/30 07:10:01;;;;;;;2.67;0.60;;;;;;;;;;5032252;28;20541;-79
2022/12/30 07:12:27;;;;;;;0.40;0.40;;;;;;;;;;5030201;28;20061;-81
2022/12/30 07:14:53;;;;;;;1.08;0.40;;;;;;;;;;5035054;28;20154;-80
2022/12/30 07:17:19;;;;;;;0.60;0.60;;;;;;;;;;5035541;28;20102;-81
2022/12/30 07:19:46;;;;;;;0.90;0.60;;;;;;;;;;5032176;28;20029;-81
2022/12/30 07:22:12;;;;;;;4.07;0.32;;;;;;;;;;5030802;28;20025;-81
2022/12/30 07:24:38;;;;;;;0.50;0.50;;;;;;;;;;5035082;28;20116;-80
2022/12/30 07:27:04;;;;;;;0.60;0.47;;;;;;;;;;5030188;28;20052;-80
2022/12/30 07:29:33;;;;;;;0.70;0.45;;;;;;;;;;5028902;28;20542;-81
2022/12/30 07:31:59;;;;;;;1.85;0.38;;;;;;;;;;5029396;28;20451;-82
2022/12/30 07:34:25;;;;;;;1.30;1.15;;;;;;;;;;5031876;28;20620;-81
2022/12/30 07:36:51;;;;;;;0.50;0.50;;;;;;;;;;5044159;28;20041;-80
2022/12/30 07:39:20;;;;;;;1.13;0.60;;;;;;;;;;5034500;28;20530;-82
2022/12/30 07:41:46;;;;;;;0.55;0.50;;;;;;;;;;5035464;28;20029;-82
2022/12/30 07:44:12;;;;;;;0.57;0.28;;;;;;;;;;5032905;28;20045;-83
2022/12/30 07:46:38;;;;;;;0.75;0.50;;;;;;;;;;5030564;28;20025;-83
2022/12/30 07:49:04;;;;;;;1.13;0.60;;;;;;;;;;5029903;28;20033;-81
2022/12/30 07:51:30;;;;;;;0.40;0.40;;;;;;;;;;5029866;28;20055;-79
2022/12/30 07:53:58;;;;;;;0.75;0.50;;;;;;;;;;5034058;28;20094;-82
2022/12/30 07:56:23;;;;;;;0.57;0.40;;;;;;;;;;5042428;28;20028;-82
2022/12/30 07:58:52;;;;;;;0.95;0.50;;;;;;;;;;5030148;28;20025;-82
2022/12/30 08:01:18;;;;;;;1.20;0.60;;;;;;;;;;5028455;28;20037;-82
2022/12/30 08:03:44;;;;;;;1.33;0.82;;;;;;;;;;5035535;28;20029;-82
2022/12/30 08:06:12;;;;;;;0.55;0.55;;;;;;;;;;5028552;28;20108;-83
2022/12/30 08:08:38;;;;;;;0.43;0.43;;;;;;;;;;5031869;28;20064;-84
2022/12/30 08:11:05;;;;;;;1.33;0.65;;;;;;;;;;5033737;28;20045;-84
2022/12/30 08:13:33;;;;;;;0.50;0.43;;;;;;;;;;5030529;28;20036;-83
2022/12/30 08:16:02;;;;;;;1.95;0.55;;;;;;;;;;5042877;28;20120;-83
2022/12/30 08:18:28;;;;;;;1.40;0.60;;;;;;;;;;5030973;28;20042;-83
2022/12/30 08:20:54;;;;;;;0.85;0.50;;;;;;;;;;5023098;28;20534;-83
2022/12/30 08:23:20;;;;;;;1.80;0.80;;;;;;;;;;5037516;28;20013;-84
2022/12/30 08:25:46;;;;;;;1.10;0.40;;;;;;;;;;5026302;28;20400;-83
2022/12/30 08:28:12;;;;;;;1.30;0.80;;;;;;;;;;5041215;28;20031;-83
2022/12/30 08:30:39;;;;;;;0.50;0.50;;;;;;;;;;5027455;28;20033;-83
2022/12/30 08:33:05;;;;;;;1.63;0.68;;;;;;;;;;5026973;28;20103;-83
2022/12/30 08:35:31;;;;;;;0.50;0.50;;;;;;;;;;5030314;28;20041;-83
2022/12/30 08:38:00;;;;;;;1.00;0.40;;;;;;;;;;5023734;28;20029;-82
2022/12/30 08:40:26;;;;;;;0.98;0.68;;;;;;;;;;5030581;28;20101;-85
2022/12/30 08:42:52;;;;;;;1.23;0.75;;;;;;;;;;5026225;28;20115;-84
2022/12/30 08:45:18;;;;;;;1.80;0.80;;;;;;;;;;5024341;28;20027;-84
2022/12/30 08:47:47;;;;;;;0.90;0.70;;;;;;;;;;5023365;28;20033;-83
2022/12/30 08:50:13;;;;;;;3.30;0.80;;;;;;;;;;5031758;28;20033;-83
2022/12/30 08:52:42;;;;;;;2.42;0.70;;;;;;;;;;5041058;28;20057;-83
2022/12/30 08:55:08;;;;;;;0.60;0.60;;;;;;;;;;5024542;28;20053;-81
2022/12/30 08:57:37;;;;;;;0.60;0.60;;;;;;;;;;5023267;28;20472;-78
2022/12/30 09:00:03;;;;;;;0.75;0.47;;;;;;;;;;5026235;28;20030;-81
2022/12/30 09:02:29;;;;;;;1.20;0.40;;;;;;;;;;5028457;28;20113;-86
2022/12/30 09:04:55;;;;;;;2.25;0.47;;;;;;;;;;5028466;28;20025;-82
2022/12/30 09:07:21;;;;;;;1.23;0.45;;;;;;;;;;5028529;28;20029;-88
2022/12/30 09:09:47;;;;;;;0.90;0.50;;;;;;;;;;5023312;28;20030;-88
2022/12/30 09:12:13;;;;;;;2.85;0.57;;;;;;;;;;5029200;28;20028;-89
2022/12/30 09:14:39;;;;;;;2.55;0.77;;;;;;;;;;5040584;28;20048;-86
2022/12/30 09:17:05;;;;;;;0.90;0.50;;;;;;;;;;5028362;28;20041;-89
2022/12/30 09:19:31;;;;;;;1.30;0.50;;;;;;;;;;5030507;28;20048;-87
2022/12/30 09:21:57;;;;;;;0.82;0.70;;;;;;;;;;5026523;28;20029;-83
2022/12/30 09:24:23;;;;;;;1.15;0.60;;;;;;;;;;5025992;28;20041;-85
2022/12/30 09:26:49;;;;;;;0.98;0.60;;;;;;;;;;5032286;28;20021;-85
2022/12/30 09:29:16;;;;;;;1.35;0.57;;;;;;;;;;5025826;28;20033;-81
2022/12/30 09:31:42;;;;;;;0.95;0.60;;;;;;;;;;5025699;28;20108;-86
2022/12/30 09:34:08;;;;;;;1.45;0.65;;;;;;;;;;5028790;28;20152;-75
2022/12/30 09:36:34;;;;;;;9.93;1.00;;;;;;;;;;5023951;28;20033;-77
2022/12/30 09:39:00;;;;;;;3.67;1.02;;;;;;;;;;5024182;28;20491;-76
2022/12/30 09:44:45;;;;;;;4.22;1.10;;;;;;;;;;5025509;28;20110;-80
2022/12/30 09:47:23;;;;;;;4.65;0.90;;;;;;;;;;5033804;28;20120;-77
2022/12/30 09:49:52;;;;;;;4.25;0.80;;;;;;;;;;5022289;28;20013;-76
2022/12/30 09:52:24;;;;;;;4.80;0.63;;;;;;;;;;5028930;28;20024;-78
2022/12/30 09:54:53;;;;;;;3.25;0.90;;;;;;;;;;5027129;28;20482;-79
2022/12/30 09:57:32;;;;;;;7.20;1.00;;;;;;;;;;5025536;28;20039;-74
2022/12/30 10:00:03;;;;;;;7.15;0.70;;;;;;;;;;5025345;28;20080;-77
2022/12/30 10:02:31;;;;;;;6.40;0.93;;;;;;;;;;5024275;28;20037;-74
2022/12/30 10:04:59;;;;;;;12.23;1.88;;;;;;;;;;5026111;28;20499;-74
2022/12/30 10:07:25;;;;;;;2.05;0.90;;;;;;;;;;5029524;28;20041;-74
2022/12/30 10:09:57;;;;;;;0.90;0.60;;;;;;;;;;5036484;28;20107;-74
2022/12/30 10:12:28;;;;;;;2.05;0.75;;;;;;;;;;5028248;28;20026;-74
2022/12/30 10:15:03;;;;;;;3.77;1.00;;;;;;;;;;5027624;28;20036;-74
2022/12/30 10:17:47;;;;;;;2.47;0.80;;;;;;;;;;5026880;28;20142;-74
2022/12/30 10:20:33;;;;;;;4.10;0.88;;;;;;;;;;5041063;28;20500;-74
2022/12/30 10:23:23;;;;;;;1.70;0.70;;;;;;;;;;5028028;28;20491;-74
2022/12/30 10:25:52;;;;;;;1.17;0.63;;;;;;;;;;5024748;28;20034;-74
2022/12/30 10:28:25;;;;;;;4.60;0.65;;;;;;;;;;5033107;28;20476;-74
2022/12/30 10:30:50;;;;;;;2.45;0.50;;;;;;;;;;5027817;28;20037;-74
2022/12/30 10:33:21;;;;;;;1.85;0.98;;;;;;;;;;5027755;28;20041;-74
2022/12/30 10:35:49;;;;;;;4.40;1.30;;;;;;;;;;5028314;28;20132;-74
2022/12/30 10:38:21;;;;;;;2.20;0.60;;;;;;;;;;5028187;28;20037;-74
2022/12/30 10:41:06;;;;;;;0.80;0.52;;;;;;;;;;5030398;28;20045;-74
2022/12/30 10:43:46;;;;;;;1.10;0.68;;;;;;;;;;5028197;28;20032;-73
2022/12/30 10:46:12;;;;;;;0.75;0.70;;;;;;;;;;5041530;28;20037;-73
2022/12/30 10:49:01;;;;;;;4.13;0.75;;;;;;;;;;5028195;28;20031;-74
2022/12/30 10:51:27;;;;;;;3.45;0.80;;;;;;;;;;5032523;28;20033;-74
2022/12/30 10:53:54;;;;;;;0.85;0.65;;;;;;;;;;5029196;28;20017;-74
2022/12/30 10:56:25;;;;;;;0.93;0.60;;;;;;;;;;5031553;28;20480;-74
2022/12/30 10:58:52;;;;;;;0.85;0.75;;;;;;;;;;5028695;28;20033;-73
2022/12/30 11:01:19;;;;;;;1.88;0.75;;;;;;;;;;5029346;28;20030;-75
2022/12/30 11:03:49;;;;;;;1.23;0.85;;;;;;;;;;5031273;28;20049;-75
2022/12/30 11:06:17;;;;;;;0.73;0.70;;;;;;;;;;5031359;28;20026;-74
2022/12/30 11:08:43;;;;;;;1.80;0.80;;;;;;;;;;5031195;28;20033;-74
2022/12/30 11:11:09;;;;;;;1.48;0.93;;;;;;;;;;5029579;28;20654;-74
2022/12/30 11:16:29;;;;;;;1.25;0.47;;;;;;;;;;5029324;28;20037;-74
2022/12/30 11:18:56;;;;;;;3.55;0.60;;;;;;;;;;5034865;28;20377;-74
2022/12/30 11:21:27;;;;;;;1.70;0.70;;;;;;;;;;5030724;28;20076;-74
2022/12/30 11:23:54;;;;;;;0.77;0.77;;;;;;;;;;5030771;28;20053;-75
2022/12/30 11:26:21;;;;;;;1.27;0.63;;;;;;;;;;5033410;28;20082;-74
2022/12/30 11:28:53;;;;;;;1.40;0.60;;;;;;;;;;5038948;28;20027;-75
2022/12/30 11:31:20;;;;;;;0.98;0.63;;;;;;;;;;5030744;28;20032;-75
2022/12/30 11:33:48;;;;;;;0.50;0.50;;;;;;;;;;5028248;28;20037;-74
2022/12/30 11:36:16;;;;;;;0.90;0.70;;;;;;;;;;5028341;28;20039;-72
2022/12/30 11:38:44;;;;;;;1.83;0.60;;;;;;;;;;5029251;28;20053;-74
2022/12/30 11:41:19;;;;;;;2.03;0.80;;;;;;;;;;5041168;28;20429;-72
2022/12/30 11:43:57;;;;;;;1.35;0.95;;;;;;;;;;5030457;28;20083;-75
2022/12/30 11:46:24;;;;;;;1.35;0.80;;;;;;;;;;5030535;28;20060;-75
2022/12/30 11:48:55;;;;;;;2.25;0.95;;;;;;;;;;5028018;28;20033;-74
2022/12/30 11:51:22;;;;;;;3.83;1.13;;;;;;;;;;5014647;28;20037;-74
2022/12/30 11:53:49;;;;;;;1.25;0.80;;;;;;;;;;5021831;28;20018;-76
2022/12/30 11:56:21;;;;;;;0.60;0.60;;;;;;;;;;5027407;28;20444;-75
2022/12/30 11:58:47;;;;;;;1.40;0.60;;;;;;;;;;5037187;28;20107;-77
2022/12/30 12:01:13;;;;;;;1.98;0.60;;;;;;;;;;5023343;28;20116;-72
2022/12/30 12:03:50;;;;;;;1.30;0.80;;;;;;;;;;5027718;28;20034;-75
2022/12/30 12:06:16;;;;;;;1.17;0.55;;;;;;;;;;5024749;28;20041;-72
2022/12/30 12:08:54;;;;;;;2.22;0.70;;;;;;;;;;5020348;28;20029;-70
2022/12/30 12:11:23;;;;;;;1.00;0.73;;;;;;;;;;5025095;28;20025;-70
2022/12/30 12:14:07;;;;;;;2.63;0.68;;;;;;;;;;5028531;28;20092;-70
2022/12/30 12:16:51;;;;;;;3.33;1.10;;;;;;;;;;5027190;28;20036;-70
2022/12/30 12:19:20;;;;;;;3.30;0.80;;;;;;;;;;5025519;28;20036;-70
2022/12/30 12:21:47;;;;;;;2.88;0.80;;;;;;;;;;5024177;28;20324;-70
2022/12/30 12:24:32;;;;;;;1.42;0.80;;;;;;;;;;5023942;28;20393;-70
2022/12/30 12:27:12;;;;;;;3.78;1.00;;;;;;;;;;5026371;28;20053;-69
2022/12/30 12:29:38;;;;;;;1.97;0.87;;;;;;;;;;5028910;28;20040;-71
2022/12/30 12:32:30;;;;;;;1.50;0.70;;;;;;;;;;5023308;28;20029;-69
2022/12/30 12:34:56;;;;;;;2.50;1.00;;;;;;;;;;5023339;28;20045;-70
2022/12/30 12:37:40;;;;;;;0.95;0.50;;;;;;;;;;5024164;28;20033;-71
2022/12/30 12:40:06;;;;;;;2.15;1.08;;;;;;;;;;5029555;28;20076;-77
2022/12/30 12:42:41;;;;;;;2.90;0.88;;;;;;;;;;5021329;28;20041;-75
2022/12/30 12:45:26;;;;;;;2.75;0.95;;;;;;;;;;5026485;28;20090;-76
2022/12/30 12:48:12;;;;;;;1.70;0.68;;;;;;;;;;5027997;28;20036;-79
2022/12/30 12:50:44;;;;;;;2.67;0.77;;;;;;;;;;5024543;28;20040;-75
2022/12/30 12:53:10;;;;;;;;;;;;;;;;;;5028129;28;20032;-75
2022/12/30 12:55:50;;;;;;;1.73;0.90;;;;;;;;;;5026285;28;19912;-75
2022/12/30 12:58:28;;;;;;;1.15;0.70;;;;;;;;;;5025783;28;20029;-73
2022/12/30 13:01:06;;;;;;;4.15;1.73;;;;;;;;;;5028800;28;20030;-75
2022/12/30 13:03:35;;;;;;;1.52;0.75;;;;;;;;;;5020283;28;20029;-74
2022/12/30 13:06:08;;;;;;;3.75;0.80;;;;;;;;;;5030880;28;20078;-75
2022/12/30 13:08:51;;;;;;;2.30;0.80;;;;;;;;;;5026282;28;20511;-73
2022/12/30 13:11:19;;;;;;;1.38;0.65;;;;;;;;;;5028913;28;20021;-77
2022/12/30 13:13:58;;;;;;;1.65;0.95;;;;;;;;;;5023955;28;20507;-81
2022/12/30 13:16:27;;;;;;;1.95;0.90;;;;;;;;;;5041157;28;20128;-84
2022/12/30 13:18:55;;;;;;;8.65;1.23;;;;;;;;;;5030806;28;20029;-78
2022/12/30 13:21:25;;;;;;;1.05;0.88;;;;;;;;;;5031120;28;20033;-77
2022/12/30 13:23:54;;;;;;;1.35;0.75;;;;;;;;;;5026273;28;20033;-78
2022/12/30 13:26:21;;;;;;;0.85;0.82;;;;;;;;;;5019869;28;20033;-77
2022/12/30 13:28:50;;;;;;;0.57;0.50;;;;;;;;;;5016349;28;20030;-81
2022/12/30 13:31:16;;;;;;;1.60;0.90;;;;;;;;;;5029255;28;20033;-77
2022/12/30 13:33:55;;;;;;;4.60;1.38;;;;;;;;;;5026924;28;20144;-79
2022/12/30 13:36:26;;;;;;;1.60;0.75;;;;;;;;;;5026070;28;20029;-80
2022/12/30 13:39:01;;;;;;;5.55;1.73;;;;;;;;;;5028057;28;20025;-78
2022/12/30 13:41:46;;;;;;;1.75;1.08;;;;;;;;;;5024580;28;20104;-79
2022/12/30 13:44:16;;;;;;;1.15;0.77;;;;;;;;;;5023977;28;20081;-76
2022/12/30 13:46:47;;;;;;;2.63;0.80;;;;;;;;;;5024669;28;20081;-76
2022/12/30 13:49:20;;;;;;;9.13;1.23;;;;;;;;;;5026027;28;20518;-80
2022/12/30 13:51:53;;;;;;;2.53;0.95;;;;;;;;;;5027097;28;20043;-79
2022/12/30 13:54:19;;;;;;;1.88;0.88;;;;;;;;;;5023242;28;20076;-77
2022/12/30 13:56:51;;;;;;;1.23;0.70;;;;;;;;;;5024133;28;20033;-82
2022/12/30 13:59:33;;;;;;;2.25;0.73;;;;;;;;;;5033477;28;20029;-78
2022/12/30 14:02:18;;;;;;;3.35;0.75;;;;;;;;;;5028973;28;20037;-81
2022/12/30 14:04:45;;;;;;;2.13;0.90;;;;;;;;;;5022969;28;20702;-80
2022/12/30 14:07:31;;;;;;;5.15;1.10;;;;;;;;;;5026577;28;20113;-75
2022/12/30 14:10:12;;;;;;;4.53;1.00;;;;;;;;;;5027549;28;20025;-78
2022/12/30 14:12:39;;;;;;;1.20;0.80;;;;;;;;;;5025651;28;20022;-79
2022/12/30 14:15:25;;;;;;;4.55;0.90;;;;;;;;;;5025399;28;20510;-77
2022/12/30 14:17:51;;;;;;;2.00;0.90;;;;;;;;;;5020805;28;20383;-80
2022/12/30 14:20:28;;;;;;;6.55;1.20;;;;;;;;;;5023716;28;20084;-80
2022/12/30 14:22:56;;;;;;;1.88;0.90;;;;;;;;;;5023324;28;20038;-77
2022/12/30 14:25:38;;;;;;;3.65;1.10;;;;;;;;;;5027444;28;20036;-77
2022/12/30 14:28:06;;;;;;;4.65;1.35;;;;;;;;;;5026394;28;20025;-78
2022/12/30 14:30:31;;;;;;;6.57;1.88;;;;;;;;;;5038036;28;20480;-77
2022/12/30 14:33:06;;;;;;;3.20;1.38;;;;;;;;;;5027589;28;20057;-76
2022/12/30 14:35:32;;;;;;;4.05;1.27;;;;;;;;;;5030706;28;20032;-75
2022/12/30 14:38:21;;;;;;;5.78;1.50;;;;;;;;;;5024751;28;20049;-79
2022/12/30 14:40:55;;;;;;;5.65;1.85;;;;;;;;;;5030839;28;20032;-76
2022/12/30 14:43:21;;;;;;;10.82;2.85;;;;;;;;;;5029079;28;20392;-78
2022/12/30 14:45:47;;;;;;;10.05;1.92;;;;;;;;;;5028235;28;20450;-78
2022/12/30 14:48:33;;;;;;;10.63;2.17;;;;;;;;;;5025774;28;20029;-77
2022/12/30 14:50:59;;;;;;;11.73;2.20;;;;;;;;;;5032761;28;20029;-79
2022/12/30 14:53:25;;;;;;;10.50;2.47;;;;;;;;;;5024289;28;20059;-78
2022/12/30 14:55:51;;;;;;;18.98;3.05;;;;;;;;;;5027600;28;20037;-76
2022/12/30 14:58:17;;;;;;;11.32;2.08;;;;;;;;;;5025379;28;20040;-77
2022/12/30 15:00:46;;;;;;;21.20;3.05;;;;;;;;;;5026254;28;20128;-77
2022/12/30 15:03:14;;;;;;;11.68;2.22;;;;;;;;;;5030872;28;20797;-77
2022/12/30 15:05:58;;;;;;;5.85;2.53;;;;;;;;;;5038976;28;20051;-77
2022/12/30 15:08:24;;;;;;;11.82;2.42;;;;;;;;;;5025889;28;20049;-76
2022/12/30 15:10:50;;;;;;;7.95;2.30;;;;;;;;;;5022775;28;20400;-75
2022/12/30 15:13:22;;;;;;;17.45;3.35;;;;;;;;;;5024476;28;20026;-78
2022/12/30 15:15:48;;;;;;;;;;;;;;;;;;5028910;28;20033;-78
2022/12/30 15:18:34;;;;;;;10.75;2.70;;;;;;;;;;5028834;28;19915;-78
2022/12/30 15:21:12;;;;;;;9.75;3.42;;;;;;;;;;5031180;28;20030;-79
2022/12/30 15:23:38;;;;;;;16.83;3.20;;;;;;;;;;5034757;28;20475;-79
2022/12/30 15:26:05;;;;;;;12.23;2.90;;;;;;;;;;5027938;28;20033;-79
2022/12/30 15:28:31;;;;;;;10.77;3.80;;;;;;;;;;5026234;28;20025;-79
2022/12/30 15:30:58;;;;;;;12.13;3.72;;;;;;;;;;5026716;28;20044;-79
2022/12/30 15:33:24;;;;;;;9.25;2.83;;;;;;;;;;5026141;28;20103;-78
2022/12/30 15:35:51;;;;;;;12.63;3.67;;;;;;;;;;5029534;28;20112;-80
2022/12/30 15:38:19;;;;;;;13.98;4.30;;;;;;;;;;5027811;28;20029;-82
2022/12/30 15:40:45;;;;;;;17.40;3.13;;;;;;;;;;5024842;28;20104;-82
2022/12/30 15:43:13;;;;;;;10.10;3.00;;;;;;;;;;5028149;28;20029;-86
2022/12/30 15:45:41;;;;;;;9.85;3.45;;;;;;;;;;5033070;28;20092;-80
2022/12/30 15:48:19;;;;;;;13.75;3.03;;;;;;;;;;5030659;28;20553;-81
2022/12/30 15:50:46;;;;;;;13.25;3.70;;;;;;;;;;5027199;28;20439;-81
2022/12/30 15:53:34;;;;;;;10.68;3.35;;;;;;;;;;5036702;28;20048;-80